Terminal Aerodrome Forecast
Issued by NWS Louisville, KY

Home | Current Version | Previous Version | Text Only | Print | Product List | Glossary On
Versions: 1 2 3 4 5 6 7 8 9 10 11 12 13 14 15 16
372
FTUS43 KLMK 191956 AAA
TAFBWG
TAF AMD
KBWG 191956Z 1920/2018 VRB04KT P6SM VCSH SCT040 BKN120
     FM192300 00000KT P6SM SKC
     FM200800 00000KT 3SM BR SKC
      TEMPO 2009/2013 1SM BR
     FM201400 VRB04KT P6SM SKC=

USA.gov is the U.S. government's official web portal to all federal, state and local government web resources and services.